createdAt,value
2022-09-06T00:00:45.023Z,100998.84
2022-09-06T00:03:47.170Z,100991.91
2022-09-06T00:06:49.117Z,100994.56
2022-09-06T00:09:50.909Z,100995.75
2022-09-06T00:12:52.535Z,100994.25
2022-09-06T00:15:54.437Z,100992.53
2022-09-06T00:18:56.548Z,100982.16
2022-09-06T00:21:58.556Z,100983.78
2022-09-06T00:25:00.220Z,100985.66
2022-09-06T00:28:05.376Z,100983.78
2022-09-06T00:31:12.292Z,100982.13
2022-09-06T00:34:14.147Z,100992.00
2022-09-06T00:37:15.952Z,100985.31
2022-09-06T00:40:18.272Z,100990.56
2022-09-06T00:43:20.080Z,101000.09
2022-09-06T00:46:25.814Z,101008.78
2022-09-06T00:49:39.893Z,101008.31
2022-09-06T00:52:43.384Z,101003.09
2022-09-06T00:55:45.562Z,101003.22
2022-09-06T00:58:48.736Z,101010.88
2022-09-06T01:01:50.690Z,101017.53
2022-09-06T01:04:52.844Z,101022.63
2022-09-06T01:08:12.685Z,101011.97
2022-09-06T01:11:43.003Z,101018.28
2022-09-06T01:14:44.847Z,101011.00
2022-09-06T01:18:13.881Z,101006.25
2022-09-06T01:21:40.252Z,101001.91
2022-09-06T01:24:57.439Z,101001.72
2022-09-06T01:28:27.659Z,100989.94
2022-09-06T01:31:40.890Z,100993.63
2022-09-06T01:34:48.101Z,100986.47
2022-09-06T01:37:50.186Z,100985.87
2022-09-06T01:40:52.078Z,100988.81
2022-09-06T01:43:54.910Z,100983.16
2022-09-06T01:47:09.550Z,100982.31
2022-09-06T01:50:11.154Z,100987.53
2022-09-06T01:53:35.127Z,100980.56
2022-09-06T01:57:05.186Z,100985.87
2022-09-06T02:00:09.562Z,100976.06
2022-09-06T02:03:30.372Z,100977.72
2022-09-06T02:06:39.061Z,100980.38
2022-09-06T02:09:42.434Z,100978.56
2022-09-06T02:12:48.411Z,100977.62
2022-09-06T02:15:56.140Z,100979.31
2022-09-06T02:19:14.019Z,100978.50
2022-09-06T02:22:20.669Z,100975.78
2022-09-06T02:25:27.753Z,100984.53
2022-09-06T02:28:29.821Z,100980.13
2022-09-06T02:31:41.741Z,100972.31
2022-09-06T02:34:46.160Z,100966.97
2022-09-06T02:37:48.218Z,100974.09
2022-09-06T02:40:53.810Z,100965.22
2022-09-06T02:43:55.549Z,100973.81
2022-09-06T02:46:57.540Z,100977.25
2022-09-06T02:49:59.435Z,100973.03
2022-09-06T02:53:12.758Z,100968.63
2022-09-06T02:56:14.792Z,100970.53
2022-09-06T02:59:16.583Z,100977.53
2022-09-06T03:02:18.301Z,100975.00
2022-09-06T03:05:20.369Z,100975.72
2022-09-06T03:08:25.860Z,100966.28
2022-09-06T03:11:28.639Z,100970.62
2022-09-06T03:14:30.528Z,100973.16
2022-09-06T03:17:32.447Z,100973.81
2022-09-06T03:20:37.154Z,100969.50
2022-09-06T03:23:39.660Z,100969.50
2022-09-06T03:26:41.586Z,100968.56
2022-09-06T03:29:43.506Z,100969.06
2022-09-06T03:32:45.560Z,100972.37
2022-09-06T03:35:55.811Z,100976.50
2022-09-06T03:38:58.343Z,100972.44
2022-09-06T03:42:00.140Z,100963.84
2022-09-06T03:45:01.991Z,100969.25
2022-09-06T03:48:03.843Z,100964.09
2022-09-06T03:51:05.889Z,100974.50
2022-09-06T03:54:07.800Z,100975.81
2022-09-06T03:57:10.250Z,100987.09
2022-09-06T04:00:12.802Z,100985.03
2022-09-06T04:03:15.228Z,100986.06
2022-09-06T04:06:16.924Z,100984.56
2022-09-06T04:09:18.755Z,100986.47
2022-09-06T04:12:20.362Z,100975.63
2022-09-06T04:15:22.198Z,100979.34
2022-09-06T04:18:24.594Z,100977.00
2022-09-06T04:21:27.103Z,100979.63
2022-09-06T04:24:28.896Z,100980.59
2022-09-06T04:27:31.128Z,100980.56
2022-09-06T04:30:32.969Z,100985.53
2022-09-06T04:33:37.253Z,100986.69
2022-09-06T04:36:38.862Z,100990.03
2022-09-06T04:39:40.790Z,100986.47
2022-09-06T04:42:42.591Z,100990.31
2022-09-06T04:45:44.959Z,100990.41
2022-09-06T04:48:48.104Z,100983.31
2022-09-06T04:51:49.891Z,100988.66
2022-09-06T04:54:51.638Z,100995.84
2022-09-06T04:57:53.298Z,100990.69
2022-09-06T05:00:55.288Z,100991.09
2022-09-06T05:03:57.291Z,100995.75
2022-09-06T05:07:07.232Z,101003.66
2022-09-06T05:10:09.157Z,100986.16
2022-09-06T05:13:10.932Z,100990.59
2022-09-06T05:16:13.070Z,100996.69
2022-09-06T05:19:14.720Z,100990.59
2022-09-06T05:22:16.594Z,100989.25
2022-09-06T05:25:18.280Z,100993.66
2022-09-06T05:28:20.328Z,100978.47
2022-09-06T05:31:30.536Z,100978.63
2022-09-06T05:34:32.363Z,100976.53
2022-09-06T05:37:33.992Z,100975.56
2022-09-06T05:40:35.966Z,100967.41
2022-09-06T05:43:37.644Z,100977.84
2022-09-06T05:46:46.236Z,100970.97
2022-09-06T05:49:48.204Z,100975.56
2022-09-06T05:52:49.914Z,100978.59
2022-09-06T05:55:52.010Z,100975.97
2022-09-06T05:58:53.826Z,100976.88
2022-09-06T06:01:55.726Z,100968.22
2022-09-06T06:04:58.347Z,100972.81
2022-09-06T06:08:00.333Z,100981.78
2022-09-06T06:11:02.527Z,100981.88
2022-09-06T06:14:05.011Z,100978.38
2022-09-06T06:17:06.625Z,100981.91
2022-09-06T06:20:08.964Z,100977.56
2022-09-06T06:23:10.610Z,100979.59
2022-09-06T06:26:13.053Z,100976.94
2022-09-06T06:29:16.064Z,100982.44
2022-09-06T06:32:17.773Z,100979.87
2022-09-06T06:35:19.610Z,100976.28
2022-09-06T06:38:21.475Z,100979.97
2022-09-06T06:41:25.929Z,100986.31
2022-09-06T06:44:28.556Z,100985.41
2022-09-06T06:47:31.425Z,100983.84
2022-09-06T06:50:33.057Z,100981.28
2022-09-06T06:53:35.508Z,100980.47
2022-09-06T06:56:41.073Z,100987.53
2022-09-06T06:59:43.154Z,100986.69
2022-09-06T07:02:44.919Z,100987.03
2022-09-06T07:09:08.934Z,100984.47
2022-09-06T07:12:10.761Z,100987.94
2022-09-06T07:15:12.419Z,100987.03
2022-09-06T07:18:16.740Z,100980.97
2022-09-06T07:21:41.665Z,100977.44
2022-09-06T07:24:43.565Z,100994.25
2022-09-06T07:30:55.033Z,100983.47
2022-09-06T07:33:56.694Z,101001.00
2022-09-06T07:36:58.518Z,101000.72
2022-09-06T07:40:00.769Z,100999.34
2022-09-06T07:43:02.447Z,100999.78
2022-09-06T07:46:05.521Z,101003.94
2022-09-06T07:49:07.572Z,101007.97
2022-09-06T07:55:30.762Z,100997.47
2022-09-06T07:58:33.048Z,100992.59
2022-09-06T08:01:36.521Z,100985.44
2022-09-06T08:04:38.563Z,100982.13
2022-09-06T08:07:40.509Z,100984.88
2022-09-06T08:10:42.423Z,100983.91
2022-09-06T08:13:44.586Z,100989.75
2022-09-06T08:16:46.524Z,100987.84
2022-09-06T08:19:49.399Z,100985.72
2022-09-06T08:22:51.023Z,100982.87
2022-09-06T08:25:59.393Z,100983.16
2022-09-06T08:29:06.017Z,100988.91
2022-09-06T08:32:07.792Z,100979.22
2022-09-06T08:35:09.970Z,100979.00
2022-09-06T08:38:11.548Z,100968.41
2022-09-06T08:41:37.724Z,100976.97
2022-09-06T08:44:57.559Z,100967.00
2022-09-06T08:47:59.925Z,100957.28
2022-09-06T08:51:27.532Z,100959.66
2022-09-06T08:54:48.689Z,100961.31
2022-09-06T08:58:17.939Z,100947.53
2022-09-06T09:01:27.436Z,100947.88
2022-09-06T09:04:31.027Z,100947.34
2022-09-06T09:08:10.321Z,100944.31
2022-09-06T09:11:18.144Z,100943.66
2022-09-06T09:14:27.716Z,100948.44
2022-09-06T09:17:32.527Z,100946.06
2022-09-06T09:20:34.501Z,100939.75
2022-09-06T09:23:37.153Z,100942.59
2022-09-06T09:27:13.095Z,100939.97
2022-09-06T09:33:40.622Z,100932.44
2022-09-06T09:40:04.476Z,100942.25
2022-09-06T09:43:23.445Z,100930.69
2022-09-06T09:46:25.275Z,100930.34
2022-09-06T09:49:27.705Z,100919.56
2022-09-06T09:52:32.742Z,100921.41
2022-09-06T09:55:34.582Z,100914.94
2022-09-06T09:58:37.585Z,100916.75
2022-09-06T10:01:39.243Z,100900.78
2022-09-06T10:04:47.062Z,100907.13
2022-09-06T10:07:55.038Z,100895.59
2022-09-06T10:10:58.101Z,100889.78
2022-09-06T10:14:39.685Z,100887.81
2022-09-06T10:17:44.690Z,100884.69
2022-09-06T10:20:54.453Z,100891.06
2022-09-06T10:24:27.827Z,100889.56
2022-09-06T10:27:31.128Z,100873.84
2022-09-06T10:30:41.316Z,100867.00
2022-09-06T10:34:10.806Z,100873.69
2022-09-06T10:37:21.895Z,100873.38
2022-09-06T10:40:32.088Z,100867.59
2022-09-06T10:43:47.258Z,100869.75
2022-09-06T10:47:00.018Z,100864.50
2022-09-06T10:50:05.311Z,100858.31
2022-09-06T10:53:26.281Z,100848.06
2022-09-06T10:56:45.801Z,100852.38
2022-09-06T10:59:54.183Z,100851.25
2022-09-06T11:06:53.397Z,100839.44
2022-09-06T11:10:09.705Z,100834.41
2022-09-06T11:13:17.200Z,100837.88
2022-09-06T11:16:28.396Z,100827.69
2022-09-06T11:19:40.641Z,100827.03
2022-09-06T11:22:55.612Z,100821.59
2022-09-06T11:26:03.522Z,100826.25
2022-09-06T11:29:09.937Z,100818.69
2022-09-06T11:32:33.344Z,100813.47
2022-09-06T11:35:36.187Z,100808.00
2022-09-06T11:38:38.170Z,100805.03
2022-09-06T11:41:42.068Z,100808.97
2022-09-06T11:44:49.765Z,100804.72
2022-09-06T11:47:52.647Z,100796.37
2022-09-06T11:50:54.386Z,100802.56
2022-09-06T11:53:59.072Z,100798.75
2022-09-06T11:57:20.640Z,100799.75
2022-09-06T12:00:24.599Z,100792.94
2022-09-06T12:07:13.388Z,100787.88
2022-09-06T12:10:45.048Z,100784.62
2022-09-06T12:13:47.148Z,100780.97
2022-09-06T12:16:57.563Z,100778.44
2022-09-06T12:20:08.058Z,100769.34
2022-09-06T12:23:35.777Z,100770.16
2022-09-06T12:27:23.197Z,100768.31
2022-09-06T12:30:42.163Z,100771.88
2022-09-06T12:33:45.171Z,100761.59
2022-09-06T12:36:51.063Z,100761.31
2022-09-06T12:40:00.001Z,100761.31
2022-09-06T12:43:04.875Z,100761.00
2022-09-06T12:46:08.198Z,100755.09
2022-09-06T12:49:12.112Z,100748.03
2022-09-06T12:52:19.048Z,100752.59
2022-09-06T12:55:24.562Z,100749.84
2022-09-06T12:58:29.783Z,100737.53
2022-09-06T13:01:36.014Z,100741.66
2022-09-06T13:04:41.845Z,100741.38
2022-09-06T13:07:55.580Z,100739.69
2022-09-06T13:10:58.093Z,100731.22
2022-09-06T13:14:01.820Z,100731.84
2022-09-06T13:17:03.548Z,100730.22
2022-09-06T13:20:31.916Z,100736.56
2022-09-06T13:23:45.991Z,100737.19
2022-09-06T13:26:47.684Z,100738.91
2022-09-06T13:30:07.541Z,100745.66
2022-09-06T13:33:23.349Z,100731.72
2022-09-06T13:36:31.012Z,100726.31
2022-09-06T13:39:36.108Z,100721.97
2022-09-06T13:42:38.103Z,100712.91
2022-09-06T13:45:40.027Z,100713.62
2022-09-06T13:48:44.613Z,100704.38
2022-09-06T13:51:46.771Z,100706.31
2022-09-06T13:54:48.854Z,100697.31
2022-09-06T13:57:51.263Z,100704.78
2022-09-06T14:00:56.286Z,100707.66
2022-09-06T14:03:58.160Z,100701.41
2022-09-06T14:07:00.116Z,100693.19
2022-09-06T14:10:01.811Z,100692.94
2022-09-06T14:13:03.559Z,100694.56
2022-09-06T14:16:06.121Z,100692.75
2022-09-06T14:19:07.986Z,100683.56
2022-09-06T14:22:09.640Z,100678.88
2022-09-06T14:25:11.273Z,100673.69
2022-09-06T14:28:13.178Z,100667.41
2022-09-06T14:31:17.536Z,100663.16
2022-09-06T14:34:19.233Z,100672.88
2022-09-06T14:37:22.111Z,100668.03
2022-09-06T14:40:24.102Z,100666.88
2022-09-06T14:43:26.036Z,100662.56
2022-09-06T14:46:28.843Z,100662.25
2022-09-06T14:49:30.735Z,100655.59
2022-09-06T14:52:32.351Z,100647.78
2022-09-06T14:55:34.734Z,100645.69
2022-09-06T14:58:38.026Z,100654.69
2022-09-06T15:01:39.836Z,100652.62
2022-09-06T15:04:42.014Z,100656.63
2022-09-06T15:07:43.796Z,100660.94
2022-09-06T15:10:54.423Z,100656.72
2022-09-06T15:13:57.148Z,100664.50
2022-09-06T15:17:00.129Z,100655.28
2022-09-06T15:20:02.378Z,100658.03
2022-09-06T15:26:27.739Z,100657.69
2022-09-06T15:29:29.682Z,100653.44
2022-09-06T15:32:31.253Z,100651.28
2022-09-06T15:35:33.536Z,100648.31
2022-09-06T15:38:48.004Z,100653.06
2022-09-06T15:41:50.756Z,100656.69
2022-09-06T15:44:52.691Z,100653.25
2022-09-06T15:47:55.835Z,100651.53
2022-09-06T15:50:57.482Z,100642.94
2022-09-06T15:53:59.796Z,100634.25
2022-09-06T15:57:01.381Z,100642.50
2022-09-06T16:00:03.760Z,100641.25
2022-09-06T16:03:05.477Z,100641.50
2022-09-06T16:06:25.823Z,100633.56
2022-09-06T16:09:29.313Z,100634.31
2022-09-06T16:12:30.930Z,100628.09
2022-09-06T16:15:32.868Z,100621.97
2022-09-06T16:18:36.301Z,100635.25
2022-09-06T16:21:40.455Z,100642.38
2022-09-06T16:24:42.136Z,100634.63
2022-09-06T16:27:43.756Z,100639.09
2022-09-06T16:30:45.401Z,100625.81
2022-09-06T16:33:48.977Z,100624.25
2022-09-06T16:36:50.814Z,100619.19
2022-09-06T16:39:52.516Z,100622.69
2022-09-06T16:42:54.646Z,100624.41
2022-09-06T16:46:01.234Z,100621.81
2022-09-06T16:49:04.458Z,100623.66
2022-09-06T16:52:06.404Z,100622.78
2022-09-06T16:55:08.165Z,100616.69
2022-09-06T16:58:10.039Z,100614.28
2022-09-06T17:01:11.923Z,100625.00
2022-09-06T17:04:14.242Z,100615.31
2022-09-06T17:07:16.336Z,100624.38
2022-09-06T17:10:19.074Z,100628.56
2022-09-06T17:13:20.899Z,100625.16
2022-09-06T17:16:42.249Z,100632.31
2022-09-06T17:19:44.689Z,100626.06
2022-09-06T17:22:50.763Z,100622.09
2022-09-06T17:25:53.200Z,100625.75
2022-09-06T17:28:56.595Z,100634.63
2022-09-06T17:31:59.285Z,100639.97
2022-09-06T17:35:00.955Z,100645.75
2022-09-06T17:38:02.968Z,100639.44
2022-09-06T17:41:05.056Z,100649.88
2022-09-06T17:44:08.439Z,100651.91
2022-09-06T17:47:12.854Z,100649.19
2022-09-06T17:50:15.799Z,100658.78
2022-09-06T17:53:17.808Z,100669.41
2022-09-06T17:56:20.828Z,100677.34
2022-09-06T17:59:22.587Z,100690.59
2022-09-06T18:02:24.608Z,100705.41
2022-09-06T18:05:27.020Z,100718.69
2022-09-06T18:08:29.312Z,100725.66
2022-09-06T18:11:33.563Z,100712.69
2022-09-06T18:14:35.427Z,100722.31
2022-09-06T18:17:37.498Z,100727.44
2022-09-06T18:20:40.542Z,100725.69
2022-09-06T18:23:42.645Z,100731.22
2022-09-06T18:26:45.250Z,100733.06
2022-09-06T18:29:47.223Z,100732.19
2022-09-06T18:32:49.409Z,100738.41
2022-09-06T18:35:51.629Z,100740.19
2022-09-06T18:38:54.132Z,100746.34
2022-09-06T18:42:02.482Z,100742.78
2022-09-06T18:45:04.883Z,100725.03
2022-09-06T18:48:07.099Z,100738.22
2022-09-06T18:51:13.365Z,100747.88
2022-09-06T18:54:15.880Z,100748.66
2022-09-06T18:57:18.021Z,100759.34
2022-09-06T19:00:20.157Z,100751.47
2022-09-06T19:03:22.438Z,100760.31
2022-09-06T19:06:25.018Z,100756.66
2022-09-06T19:09:27.191Z,100748.72
2022-09-06T19:12:29.298Z,100754.94
2022-09-06T19:15:31.437Z,100752.25
2022-09-06T19:18:34.851Z,100752.34
2022-09-06T19:21:41.677Z,100749.69
2022-09-06T19:24:44.951Z,100743.50
2022-09-06T19:27:48.957Z,100741.75
2022-09-06T19:30:51.819Z,100736.34
2022-09-06T19:33:55.667Z,100734.63
2022-09-06T19:36:58.090Z,100736.41
2022-09-06T19:40:00.418Z,100717.94
2022-09-06T19:43:02.971Z,100728.66
2022-09-06T19:46:09.912Z,100723.38
2022-09-06T19:49:11.945Z,100732.19
2022-09-06T19:52:14.248Z,100735.72
2022-09-06T19:55:16.593Z,100732.16
2022-09-06T19:58:18.784Z,100726.88
2022-09-06T20:01:22.186Z,100723.44
2022-09-06T20:04:24.603Z,100724.31
2022-09-06T20:07:28.422Z,100719.91
2022-09-06T20:10:30.807Z,100706.69
2022-09-06T20:13:36.184Z,100700.50
2022-09-06T20:16:41.803Z,100694.34
2022-09-06T20:19:44.254Z,100689.06
2022-09-06T20:22:50.358Z,100689.97
2022-09-06T20:26:00.018Z,100696.12
2022-09-06T20:29:03.549Z,100689.97
2022-09-06T20:32:05.787Z,100697.87
2022-09-06T20:35:08.788Z,100695.25
2022-09-06T20:38:10.877Z,100684.69
2022-09-06T20:41:21.548Z,100684.66
2022-09-06T20:44:23.792Z,100687.31
2022-09-06T20:47:25.975Z,100687.31
2022-09-06T20:50:28.043Z,100681.16
2022-09-06T20:53:32.004Z,100690.84
2022-09-06T20:56:39.595Z,100681.13
2022-09-06T20:59:41.685Z,100685.56
2022-09-06T21:02:43.376Z,100688.19
2022-09-06T21:05:45.351Z,100682.03
2022-09-06T21:08:47.974Z,100682.91
2022-09-06T21:11:52.154Z,100686.41
2022-09-06T21:14:54.965Z,100680.25
2022-09-06T21:17:56.836Z,100679.34
2022-09-06T21:21:06.023Z,100679.34
2022-09-06T21:24:09.540Z,100680.22
2022-09-06T21:27:12.241Z,100672.28
2022-09-06T21:30:14.958Z,100666.09
2022-09-06T21:33:16.773Z,100667.84
2022-09-06T21:36:29.471Z,100656.38
2022-09-06T21:39:31.292Z,100651.97
2022-09-06T21:42:33.079Z,100647.53
2022-09-06T21:45:38.206Z,100645.81
2022-09-06T21:48:42.859Z,100642.28
2022-09-06T21:51:44.470Z,100638.72
2022-09-06T21:54:46.443Z,100638.75
2022-09-06T21:57:48.026Z,100644.88
2022-09-06T22:00:53.919Z,100644.91
2022-09-06T22:03:56.145Z,100647.56
2022-09-06T22:06:57.763Z,100643.06
2022-09-06T22:09:59.526Z,100642.19
2022-09-06T22:13:01.220Z,100639.56
2022-09-06T22:16:07.863Z,100636.97
2022-09-06T22:19:10.513Z,100638.69
2022-09-06T22:22:12.197Z,100628.09
2022-09-06T22:25:14.499Z,100642.22
2022-09-06T22:28:16.359Z,100641.31
2022-09-06T22:31:18.006Z,100639.50
2022-09-06T22:34:19.917Z,100644.69
2022-09-06T22:37:21.872Z,100646.50
2022-09-06T22:40:23.489Z,100643.00
2022-09-06T22:43:25.958Z,100641.25
2022-09-06T22:46:28.963Z,100642.19
2022-09-06T22:49:30.620Z,100639.56
2022-09-06T22:52:32.268Z,100637.78
2022-09-06T22:55:34.558Z,100642.16
2022-09-06T22:58:36.959Z,100628.97
2022-09-06T23:01:39.375Z,100627.25
2022-09-06T23:04:41.253Z,100625.44
2022-09-06T23:07:43.577Z,100614.06
2022-09-06T23:10:45.257Z,100621.09
2022-09-06T23:13:47.376Z,100620.22
2022-09-06T23:16:49.004Z,100622.88
2022-09-06T23:19:51.532Z,100610.56
2022-09-06T23:22:53.439Z,100610.56
2022-09-06T23:25:55.053Z,100610.56
2022-09-06T23:28:57.081Z,100600.84
2022-09-06T23:32:17.418Z,100606.06
2022-09-06T23:35:19.073Z,100603.41
2022-09-06T23:38:20.895Z,100596.41
2022-09-06T23:41:23.526Z,100597.25
2022-09-06T23:44:25.402Z,100599.94
2022-09-06T23:47:27.035Z,100595.53
2022-09-06T23:50:28.687Z,100602.53
2022-09-06T23:53:30.861Z,100594.56
2022-09-06T23:56:32.531Z,100600.78
2022-09-06T23:59:35.116Z,100603.47
